createdAt,value
2022-10-01T00:01:34.553Z,9.3
2022-10-01T00:06:34.524Z,9.3
2022-10-01T00:11:34.515Z,9.3
2022-10-01T00:16:34.488Z,9.3
2022-10-01T00:21:34.473Z,9.2
2022-10-01T00:26:34.463Z,9.3
2022-10-01T00:31:34.426Z,9.2
2022-10-01T00:36:34.410Z,9.2
2022-10-01T00:41:34.385Z,9.3
2022-10-01T00:46:34.369Z,9.3
2022-10-01T00:51:34.351Z,9.3
2022-10-01T00:56:34.333Z,9.3
2022-10-01T01:01:34.314Z,9.3
2022-10-01T01:06:34.296Z,9.3
2022-10-01T01:11:34.278Z,9.3
2022-10-01T01:16:34.265Z,9.3
2022-10-01T01:21:34.238Z,9.3
2022-10-01T01:26:34.224Z,9.3
2022-10-01T01:31:34.201Z,9.3
2022-10-01T01:36:34.175Z,9.4
2022-10-01T01:41:34.159Z,9.4
2022-10-01T01:46:34.146Z,9.5
2022-10-01T01:51:34.128Z,9.5
2022-10-01T01:56:34.105Z,9.5
2022-10-01T02:01:34.083Z,9.5
2022-10-01T02:06:34.063Z,9.5
2022-10-01T02:11:34.045Z,9.5
2022-10-01T02:16:34.022Z,9.6
2022-10-01T02:21:34.008Z,9.6
2022-10-01T02:26:33.978Z,9.6
2022-10-01T02:36:33.942Z,9.7
2022-10-01T02:41:33.920Z,9.7
2022-10-01T02:46:33.903Z,9.8
2022-10-01T02:51:33.887Z,9.8
2022-10-01T02:56:33.866Z,9.9
2022-10-01T03:01:33.843Z,9.9
2022-10-01T03:06:33.832Z,9.9
2022-10-01T03:11:33.802Z,10
2022-10-01T03:16:33.790Z,10
2022-10-01T03:21:33.763Z,10
2022-10-01T03:26:33.751Z,10.1
2022-10-01T03:31:33.728Z,10.1
2022-10-01T03:36:33.709Z,10.1
2022-10-01T03:41:33.691Z,10.4
2022-10-01T03:46:33.676Z,10.6
2022-10-01T03:51:33.648Z,10.7
2022-10-01T03:56:33.632Z,10.8
2022-10-01T04:01:33.608Z,10.9
2022-10-01T04:06:33.586Z,11
2022-10-01T04:11:33.569Z,11.2
2022-10-01T04:16:33.565Z,11.2
2022-10-01T04:21:33.539Z,11.3
2022-10-01T04:31:33.493Z,11.5
2022-10-01T04:36:33.473Z,11.5
2022-10-01T04:41:33.455Z,11.6
2022-10-01T04:46:33.433Z,11.5
2022-10-01T04:51:33.402Z,11.5
2022-10-01T04:56:33.395Z,11.4
2022-10-01T05:01:33.373Z,11.2
2022-10-01T05:06:33.356Z,11.1
2022-10-01T05:11:33.329Z,11
2022-10-01T05:16:33.313Z,10.9
2022-10-01T05:21:33.286Z,10.8
2022-10-01T05:26:33.266Z,10.8
2022-10-01T05:31:33.248Z,10.8
2022-10-01T05:36:33.224Z,10.7
2022-10-01T05:41:33.210Z,10.6
2022-10-01T05:46:33.195Z,10.7
2022-10-01T05:51:33.173Z,10.6
2022-10-01T05:56:33.182Z,10.6
2022-10-01T06:01:33.142Z,10.6
2022-10-01T06:06:33.105Z,10.6
2022-10-01T06:11:33.093Z,10.6
2022-10-01T06:16:33.073Z,10.6
2022-10-01T06:21:33.051Z,10.6
2022-10-01T06:26:33.028Z,10.7
2022-10-01T06:31:33.015Z,10.7
2022-10-01T06:36:32.988Z,10.7
2022-10-01T06:41:32.977Z,10.8
2022-10-01T06:46:32.952Z,10.8
2022-10-01T06:51:32.933Z,10.8
2022-10-01T06:56:32.908Z,10.9
2022-10-01T07:01:32.892Z,10.9
2022-10-01T07:06:32.874Z,11
2022-10-01T07:11:32.895Z,11
2022-10-01T07:16:32.831Z,11.1
2022-10-01T07:21:32.812Z,11.1
2022-10-01T07:26:32.799Z,11.1
2022-10-01T07:31:32.773Z,11.1
2022-10-01T07:36:32.753Z,11.1
2022-10-01T07:41:32.786Z,11
2022-10-01T07:46:32.720Z,11
2022-10-01T07:51:32.690Z,11
2022-10-01T07:56:32.674Z,11.1
2022-10-01T08:01:32.655Z,11.1
2022-10-01T08:06:32.631Z,11.1
2022-10-01T08:11:32.609Z,11.1
2022-10-01T08:16:32.596Z,11.2
2022-10-01T08:21:32.571Z,11.2
2022-10-01T08:26:32.554Z,11.3
2022-10-01T08:31:32.532Z,11.2
2022-10-01T08:36:32.515Z,11.2
2022-10-01T08:41:32.491Z,11.2
2022-10-01T08:46:32.481Z,11.2
2022-10-01T08:51:32.451Z,11.2
2022-10-01T08:56:32.439Z,11.2
2022-10-01T09:01:32.411Z,11.2
2022-10-01T09:06:32.393Z,11.3
2022-10-01T09:11:32.377Z,11.3
2022-10-01T09:16:32.348Z,11.3
2022-10-01T09:21:32.337Z,11.3
2022-10-01T09:26:32.316Z,11.3
2022-10-01T09:31:32.295Z,11.4
2022-10-01T09:36:32.283Z,11.5
2022-10-01T09:41:32.247Z,11.6
2022-10-01T09:46:32.259Z,11.6
2022-10-01T09:51:32.218Z,11.7
2022-10-01T09:56:32.196Z,11.7
2022-10-01T10:01:32.178Z,11.7
2022-10-01T10:06:32.285Z,11.8
2022-10-01T10:11:32.208Z,11.8
2022-10-01T10:16:32.287Z,11.8
2022-10-01T10:21:32.101Z,11.8
2022-10-01T10:26:32.129Z,11.9
2022-10-01T10:31:32.048Z,12
2022-10-01T10:36:32.037Z,12.1
2022-10-01T10:41:32.118Z,12.1
2022-10-01T10:46:32.100Z,12.2
2022-10-01T10:51:31.975Z,12.2
2022-10-01T10:56:32.043Z,12.3
2022-10-01T11:01:31.931Z,12.4
2022-10-01T11:06:31.921Z,12.4
2022-10-01T11:11:31.965Z,12.5
2022-10-01T11:16:31.999Z,12.5
2022-10-01T11:21:31.892Z,12.6
2022-10-01T11:26:31.832Z,12.7
2022-10-01T11:31:31.819Z,12.7
2022-10-01T11:36:31.787Z,12.8
2022-10-01T11:41:31.895Z,12.9
2022-10-01T11:46:31.747Z,13
2022-10-01T11:51:31.817Z,13.2
2022-10-01T11:56:31.705Z,13.3
2022-10-01T12:01:31.688Z,13.4
2022-10-01T12:06:31.759Z,13.5
2022-10-01T12:11:31.675Z,13.6
2022-10-01T12:16:31.634Z,13.6
2022-10-01T12:21:31.604Z,13.7
2022-10-01T12:26:31.625Z,13.8
2022-10-01T12:31:31.566Z,14
2022-10-01T12:36:31.543Z,14.1
2022-10-01T12:41:31.521Z,14.2
2022-10-01T12:46:31.502Z,14.3
2022-10-01T12:51:31.536Z,14.3
2022-10-01T12:56:31.558Z,14.3
2022-10-01T13:01:31.434Z,14.3
2022-10-01T13:06:31.535Z,14.2
2022-10-01T13:11:31.397Z,14.2
2022-10-01T13:16:31.516Z,14.2
2022-10-01T13:21:31.409Z,14.2
2022-10-01T13:26:31.340Z,14.3
2022-10-01T13:31:31.321Z,14.3
2022-10-01T13:36:31.448Z,14.4
2022-10-01T13:41:31.341Z,14.4
2022-10-01T13:46:31.274Z,14.4
2022-10-01T13:51:31.235Z,14.4
2022-10-01T13:56:31.217Z,14.4
2022-10-01T14:01:31.215Z,14.4
2022-10-01T14:06:31.303Z,14.3
2022-10-01T14:11:31.299Z,14.3
2022-10-01T14:16:31.133Z,14.3
2022-10-01T14:21:31.117Z,14.3
2022-10-01T14:26:31.198Z,14.3
2022-10-01T14:31:31.075Z,14.2
2022-10-01T14:36:31.216Z,14.2
2022-10-01T14:41:31.130Z,14.2
2022-10-01T14:46:31.010Z,14.2
2022-10-01T14:51:31.091Z,14.2
2022-10-01T14:56:30.962Z,14.2
2022-10-01T15:01:31.058Z,14.2
2022-10-01T15:06:30.935Z,14.2
2022-10-01T15:11:31.023Z,14.2
2022-10-01T15:16:30.894Z,14.2
2022-10-01T15:21:31.000Z,14.2
2022-10-01T15:26:30.874Z,14.3
2022-10-01T15:31:30.837Z,14.3
2022-10-01T15:36:30.888Z,14.3
2022-10-01T15:41:30.802Z,14.3
2022-10-01T15:46:30.758Z,14.3
2022-10-01T15:51:30.875Z,14.3
2022-10-01T15:56:30.822Z,14.3
2022-10-01T16:01:30.698Z,14.3
2022-10-01T16:06:30.787Z,14.3
2022-10-01T16:11:30.657Z,14.4
2022-10-01T16:16:30.629Z,14.4
2022-10-01T16:21:30.640Z,14.4
2022-10-01T16:26:30.724Z,14.4
2022-10-01T16:31:30.718Z,14.4
2022-10-01T16:36:30.713Z,14.4
2022-10-01T16:41:30.651Z,14.4
2022-10-01T16:46:30.659Z,14.4
2022-10-01T16:51:30.600Z,14.4
2022-10-01T16:56:30.592Z,14.5
2022-10-01T17:01:30.495Z,14.4
2022-10-01T17:06:30.555Z,14.4
2022-10-01T17:11:30.542Z,14.4
2022-10-01T17:16:30.496Z,14.4
2022-10-01T17:21:30.413Z,14.4
2022-10-01T17:26:30.443Z,14.4
2022-10-01T17:31:30.461Z,14.4
2022-10-01T17:36:30.385Z,14.4
2022-10-01T17:41:30.290Z,14.5
2022-10-01T17:46:30.261Z,14.4
2022-10-01T17:51:30.250Z,14.5
2022-10-01T17:56:30.371Z,14.5
2022-10-01T18:01:30.259Z,14.5
2022-10-01T18:06:30.324Z,14.5
2022-10-01T18:11:30.227Z,14.5
2022-10-01T18:16:30.254Z,14.6
2022-10-01T18:21:30.236Z,14.6
2022-10-01T18:31:30.231Z,14.6
2022-10-01T18:36:30.058Z,14.6
2022-10-01T18:41:30.149Z,14.6
2022-10-01T18:46:30.152Z,14.6
2022-10-01T18:56:30.094Z,14.5
2022-10-01T19:01:29.956Z,14.5
2022-10-01T19:06:29.957Z,14.5
2022-10-01T19:11:29.911Z,14.5
2022-10-01T19:16:30.015Z,14.5
2022-10-01T19:21:29.884Z,14.5
2022-10-01T19:26:29.897Z,14.4
2022-10-01T19:31:29.829Z,14.4
2022-10-01T19:36:29.819Z,14.4
2022-10-01T19:41:29.784Z,14.4
2022-10-01T19:46:29.770Z,14.3
2022-10-01T19:51:29.748Z,14.3
2022-10-01T19:56:29.723Z,14.3
2022-10-01T20:01:29.725Z,14.3
2022-10-01T20:06:29.811Z,14.3
2022-10-01T20:11:29.659Z,14.4
2022-10-01T20:16:29.673Z,14.4
2022-10-01T20:21:29.628Z,14.4
2022-10-01T20:26:29.640Z,14.4
2022-10-01T20:31:29.582Z,14.5
2022-10-01T20:36:29.565Z,14.5
2022-10-01T20:41:29.542Z,14.6
2022-10-01T20:46:29.517Z,14.5
2022-10-01T20:51:29.503Z,14.5
2022-10-01T20:56:29.476Z,14.6
2022-10-01T21:01:29.452Z,14.6
2022-10-01T21:06:29.439Z,14.6
2022-10-01T21:11:29.416Z,14.6
2022-10-01T21:16:29.397Z,14.6
2022-10-01T21:21:29.371Z,14.6
2022-10-01T21:26:29.354Z,14.6
2022-10-01T21:31:29.341Z,14.6
2022-10-01T21:36:29.319Z,14.6
2022-10-01T21:41:29.293Z,14.6
2022-10-01T21:46:29.292Z,14.7
2022-10-01T21:51:29.248Z,14.6
2022-10-01T21:56:29.263Z,14.7
2022-10-01T22:01:29.208Z,14.7
2022-10-01T22:06:29.188Z,14.6
2022-10-01T22:11:29.176Z,14.7
2022-10-01T22:16:29.149Z,14.7
2022-10-01T22:21:29.126Z,14.7
2022-10-01T22:26:29.107Z,14.7
2022-10-01T22:31:29.090Z,14.7
2022-10-01T22:36:29.065Z,14.7
2022-10-01T22:41:29.043Z,14.7
2022-10-01T22:46:29.030Z,14.7
2022-10-01T22:51:29.026Z,14.7
2022-10-01T22:56:28.984Z,14.6
2022-10-01T23:01:28.964Z,14.6
2022-10-01T23:06:28.945Z,14.6
2022-10-01T23:11:28.925Z,14.5
2022-10-01T23:16:28.894Z,14.4
2022-10-01T23:21:28.875Z,14.5
2022-10-01T23:26:28.857Z,14.4
2022-10-01T23:31:28.837Z,14.3
2022-10-01T23:36:28.822Z,14.3
2022-10-01T23:41:28.797Z,14.3
2022-10-01T23:46:28.775Z,14.3
2022-10-01T23:51:28.752Z,14.3
2022-10-01T23:56:28.738Z,14.3
